sensor_id;sensor_type;location;lat;lon;timestamp;temperature;humidity
29031;DHT22;16122;50.236;11.734;2022-12-18T00:01:17;13.60;55.40
29031;DHT22;16122;50.236;11.734;2022-12-18T00:03:43;13.60;55.50
29031;DHT22;16122;50.236;11.734;2022-12-18T00:06:09;13.60;55.30
29031;DHT22;16122;50.236;11.734;2022-12-18T00:08:35;13.60;55.20
29031;DHT22;16122;50.236;11.734;2022-12-18T00:11:05;13.60;55.10
29031;DHT22;16122;50.236;11.734;2022-12-18T00:13:32;13.60;55.00
29031;DHT22;16122;50.236;11.734;2022-12-18T00:16:06;13.60;54.80
29031;DHT22;16122;50.236;11.734;2022-12-18T00:18:32;13.60;54.80
29031;DHT22;16122;50.236;11.734;2022-12-18T00:21:00;13.60;54.60
29031;DHT22;16122;50.236;11.734;2022-12-18T00:23:27;13.60;54.70
29031;DHT22;16122;50.236;11.734;2022-12-18T00:25:53;13.60;54.50
29031;DHT22;16122;50.236;11.734;2022-12-18T00:28:19;13.60;54.40
29031;DHT22;16122;50.236;11.734;2022-12-18T00:30:46;13.60;54.30
29031;DHT22;16122;50.236;11.734;2022-12-18T00:33:12;13.60;54.30
29031;DHT22;16122;50.236;11.734;2022-12-18T00:35:37;13.60;54.20
29031;DHT22;16122;50.236;11.734;2022-12-18T00:38:03;13.60;54.10
29031;DHT22;16122;50.236;11.734;2022-12-18T00:40:30;13.60;54.20
29031;DHT22;16122;50.236;11.734;2022-12-18T00:42:56;13.50;54.00
29031;DHT22;16122;50.236;11.734;2022-12-18T00:45:28;13.60;54.00
29031;DHT22;16122;50.236;11.734;2022-12-18T00:47:55;13.60;53.90
29031;DHT22;16122;50.236;11.734;2022-12-18T00:50:22;13.60;53.80
29031;DHT22;16122;50.236;11.734;2022-12-18T00:52:48;13.50;53.60
29031;DHT22;16122;50.236;11.734;2022-12-18T00:55:15;13.50;53.60
29031;DHT22;16122;50.236;11.734;2022-12-18T00:57:40;13.50;53.60
29031;DHT22;16122;50.236;11.734;2022-12-18T01:00:10;13.50;53.50
29031;DHT22;16122;50.236;11.734;2022-12-18T01:02:36;13.50;53.50
29031;DHT22;16122;50.236;11.734;2022-12-18T01:05:02;13.50;53.50
29031;DHT22;16122;50.236;11.734;2022-12-18T01:07:28;13.50;53.40
29031;DHT22;16122;50.236;11.734;2022-12-18T01:09:54;13.50;53.30
29031;DHT22;16122;50.236;11.734;2022-12-18T01:12:20;13.50;53.30
29031;DHT22;16122;50.236;11.734;2022-12-18T01:14:45;13.50;53.30
29031;DHT22;16122;50.236;11.734;2022-12-18T01:17:11;13.50;53.30
29031;DHT22;16122;50.236;11.734;2022-12-18T01:19:37;13.50;53.20
29031;DHT22;16122;50.236;11.734;2022-12-18T01:22:03;13.70;53.30
29031;DHT22;16122;50.236;11.734;2022-12-18T01:24:29;13.50;53.30
29031;DHT22;16122;50.236;11.734;2022-12-18T01:26:56;13.50;53.20
29031;DHT22;16122;50.236;11.734;2022-12-18T01:29:23;13.50;53.20
29031;DHT22;16122;50.236;11.734;2022-12-18T01:31:48;13.50;53.10
29031;DHT22;16122;50.236;11.734;2022-12-18T01:34:14;13.50;53.00
29031;DHT22;16122;50.236;11.734;2022-12-18T01:36:41;13.50;53.00
29031;DHT22;16122;50.236;11.734;2022-12-18T01:39:11;13.50;52.90
29031;DHT22;16122;50.236;11.734;2022-12-18T01:41:38;13.50;52.90
29031;DHT22;16122;50.236;11.734;2022-12-18T01:47:23;13.50;52.70
29031;DHT22;16122;50.236;11.734;2022-12-18T01:49:49;13.50;52.60
29031;DHT22;16122;50.236;11.734;2022-12-18T01:52:15;13.50;52.60
29031;DHT22;16122;50.236;11.734;2022-12-18T01:54:43;13.50;52.60
29031;DHT22;16122;50.236;11.734;2022-12-18T01:57:09;13.50;52.50
29031;DHT22;16122;50.236;11.734;2022-12-18T01:59:36;13.50;53.20
29031;DHT22;16122;50.236;11.734;2022-12-18T02:02:03;13.50;52.40
29031;DHT22;16122;50.236;11.734;2022-12-18T02:04:29;13.50;52.40
29031;DHT22;16122;50.236;11.734;2022-12-18T02:10:15;13.50;52.40
29031;DHT22;16122;50.236;11.734;2022-12-18T02:15:15;13.50;52.20
29031;DHT22;16122;50.236;11.734;2022-12-18T02:17:54;13.50;52.10
29031;DHT22;16122;50.236;11.734;2022-12-18T02:20:35;13.50;52.10
29031;DHT22;16122;50.236;11.734;2022-12-18T02:28:41;13.50;52.00
29031;DHT22;16122;50.236;11.734;2022-12-18T02:31:13;13.50;51.90
29031;DHT22;16122;50.236;11.734;2022-12-18T02:33:41;13.50;51.90
29031;DHT22;16122;50.236;11.734;2022-12-18T02:36:09;13.50;51.90
29031;DHT22;16122;50.236;11.734;2022-12-18T02:38:37;13.50;51.70
29031;DHT22;16122;50.236;11.734;2022-12-18T02:41:11;13.50;51.70
29031;DHT22;16122;50.236;11.734;2022-12-18T02:43:38;13.50;51.70
29031;DHT22;16122;50.236;11.734;2022-12-18T02:48:56;13.50;51.60
29031;DHT22;16122;50.236;11.734;2022-12-18T02:51:31;13.50;51.60
29031;DHT22;16122;50.236;11.734;2022-12-18T02:54:10;13.50;51.50
29031;DHT22;16122;50.236;11.734;2022-12-18T02:56:54;13.50;51.50
29031;DHT22;16122;50.236;11.734;2022-12-18T02:59:32;13.50;51.50
29031;DHT22;16122;50.236;11.734;2022-12-18T03:07:45;13.50;52.10
29031;DHT22;16122;50.236;11.734;2022-12-18T03:10:16;13.50;51.50
29031;DHT22;16122;50.236;11.734;2022-12-18T03:12:52;13.40;51.50
29031;DHT22;16122;50.236;11.734;2022-12-18T03:15:25;13.50;51.50
29031;DHT22;16122;50.236;11.734;2022-12-18T03:18:03;13.50;51.50
29031;DHT22;16122;50.236;11.734;2022-12-18T03:20:32;13.40;51.40
29031;DHT22;16122;50.236;11.734;2022-12-18T03:23:12;13.40;51.30
29031;DHT22;16122;50.236;11.734;2022-12-18T03:25:41;13.40;51.20
29031;DHT22;16122;50.236;11.734;2022-12-18T03:28:12;13.50;51.30
29031;DHT22;16122;50.236;11.734;2022-12-18T03:30:41;13.50;51.30
29031;DHT22;16122;50.236;11.734;2022-12-18T03:33:10;13.50;51.30
29031;DHT22;16122;50.236;11.734;2022-12-18T03:35:43;13.40;51.20
29031;DHT22;16122;50.236;11.734;2022-12-18T03:38:10;13.40;51.10
29031;DHT22;16122;50.236;11.734;2022-12-18T03:43:36;13.40;51.00
29031;DHT22;16122;50.236;11.734;2022-12-18T03:46:17;13.40;51.00
29031;DHT22;16122;50.236;11.734;2022-12-18T03:48:52;13.40;50.90
29031;DHT22;16122;50.236;11.734;2022-12-18T03:51:42;13.50;50.90
29031;DHT22;16122;50.236;11.734;2022-12-18T03:54:11;13.40;50.90
29031;DHT22;16122;50.236;11.734;2022-12-18T03:56:46;13.40;50.90
29031;DHT22;16122;50.236;11.734;2022-12-18T03:59:15;13.40;50.80
29031;DHT22;16122;50.236;11.734;2022-12-18T04:01:46;13.40;50.80
29031;DHT22;16122;50.236;11.734;2022-12-18T04:04:14;13.40;50.80
29031;DHT22;16122;50.236;11.734;2022-12-18T04:06:43;13.40;50.80
29031;DHT22;16122;50.236;11.734;2022-12-18T04:09:12;13.40;50.70
29031;DHT22;16122;50.236;11.734;2022-12-18T04:11:43;13.40;50.70
29031;DHT22;16122;50.236;11.734;2022-12-18T04:14:11;13.40;50.60
29031;DHT22;16122;50.236;11.734;2022-12-18T04:16:37;13.40;50.70
29031;DHT22;16122;50.236;11.734;2022-12-18T04:19:05;13.40;50.70
29031;DHT22;16122;50.236;11.734;2022-12-18T04:21:37;13.40;50.50
29031;DHT22;16122;50.236;11.734;2022-12-18T04:24:04;13.40;50.60
29031;DHT22;16122;50.236;11.734;2022-12-18T04:26:32;13.40;50.50
29031;DHT22;16122;50.236;11.734;2022-12-18T04:29:21;13.40;50.40
29031;DHT22;16122;50.236;11.734;2022-12-18T04:31:47;13.40;50.40
29031;DHT22;16122;50.236;11.734;2022-12-18T04:34:14;13.40;50.40
29031;DHT22;16122;50.236;11.734;2022-12-18T04:36:47;13.40;50.40
29031;DHT22;16122;50.236;11.734;2022-12-18T04:39:14;13.40;50.30
29031;DHT22;16122;50.236;11.734;2022-12-18T04:41:43;13.40;50.30
29031;DHT22;16122;50.236;11.734;2022-12-18T04:44:09;13.40;50.20
29031;DHT22;16122;50.236;11.734;2022-12-18T04:46:35;13.40;50.80
29031;DHT22;16122;50.236;11.734;2022-12-18T04:49:01;13.40;50.20
29031;DHT22;16122;50.236;11.734;2022-12-18T04:51:27;13.40;50.10
29031;DHT22;16122;50.236;11.734;2022-12-18T04:53:53;13.30;50.00
29031;DHT22;16122;50.236;11.734;2022-12-18T04:56:19;13.40;50.10
29031;DHT22;16122;50.236;11.734;2022-12-18T04:58:45;13.30;50.00
29031;DHT22;16122;50.236;11.734;2022-12-18T05:01:13;13.30;50.00
29031;DHT22;16122;50.236;11.734;2022-12-18T05:03:40;13.30;49.90
29031;DHT22;16122;50.236;11.734;2022-12-18T05:06:06;13.30;50.00
29031;DHT22;16122;50.236;11.734;2022-12-18T05:08:32;13.30;49.90
29031;DHT22;16122;50.236;11.734;2022-12-18T05:11:06;13.30;49.90
29031;DHT22;16122;50.236;11.734;2022-12-18T05:13:33;13.30;49.90
29031;DHT22;16122;50.236;11.734;2022-12-18T05:15:59;13.30;49.90
29031;DHT22;16122;50.236;11.734;2022-12-18T05:18:26;13.30;50.00
29031;DHT22;16122;50.236;11.734;2022-12-18T05:20:52;13.40;50.00
29031;DHT22;16122;50.236;11.734;2022-12-18T05:23:19;13.30;49.90
29031;DHT22;16122;50.236;11.734;2022-12-18T05:28:17;13.40;50.00
29031;DHT22;16122;50.236;11.734;2022-12-18T05:30:53;13.40;49.90
29031;DHT22;16122;50.236;11.734;2022-12-18T05:33:20;13.40;49.90
29031;DHT22;16122;50.236;11.734;2022-12-18T05:35:54;13.40;49.80
29031;DHT22;16122;50.236;11.734;2022-12-18T05:38:21;13.40;49.80
29031;DHT22;16122;50.236;11.734;2022-12-18T05:40:48;13.40;49.70
29031;DHT22;16122;50.236;11.734;2022-12-18T05:43:14;13.40;49.70
29031;DHT22;16122;50.236;11.734;2022-12-18T05:45:40;13.10;49.40
29031;DHT22;16122;50.236;11.734;2022-12-18T05:48:07;13.40;49.60
29031;DHT22;16122;50.236;11.734;2022-12-18T05:50:41;13.40;49.60
29031;DHT22;16122;50.236;11.734;2022-12-18T05:53:07;13.40;49.60
29031;DHT22;16122;50.236;11.734;2022-12-18T05:55:34;13.40;49.60
29031;DHT22;16122;50.236;11.734;2022-12-18T05:58:02;13.40;49.60
29031;DHT22;16122;50.236;11.734;2022-12-18T06:00:28;13.40;49.60
29031;DHT22;16122;50.236;11.734;2022-12-18T06:02:54;13.40;49.50
29031;DHT22;16122;50.236;11.734;2022-12-18T06:05:20;13.40;49.50
29031;DHT22;16122;50.236;11.734;2022-12-18T06:07:46;13.40;49.50
29031;DHT22;16122;50.236;11.734;2022-12-18T06:10:11;13.40;49.50
29031;DHT22;16122;50.236;11.734;2022-12-18T06:12:37;13.40;49.40
29031;DHT22;16122;50.236;11.734;2022-12-18T06:15:04;13.40;49.40
29031;DHT22;16122;50.236;11.734;2022-12-18T06:17:31;13.40;49.50
29031;DHT22;16122;50.236;11.734;2022-12-18T06:19:57;13.40;49.50
29031;DHT22;16122;50.236;11.734;2022-12-18T06:22:23;13.40;49.60
29031;DHT22;16122;50.236;11.734;2022-12-18T06:24:49;13.40;49.70
29031;DHT22;16122;50.236;11.734;2022-12-18T06:27:15;13.40;49.80
29031;DHT22;16122;50.236;11.734;2022-12-18T06:29:40;13.40;49.70
29031;DHT22;16122;50.236;11.734;2022-12-18T06:32:07;13.40;50.10
29031;DHT22;16122;50.236;11.734;2022-12-18T06:34:33;13.40;50.10
29031;DHT22;16122;50.236;11.734;2022-12-18T06:36:59;13.40;50.30
29031;DHT22;16122;50.236;11.734;2022-12-18T06:39:29;13.40;50.30
29031;DHT22;16122;50.236;11.734;2022-12-18T06:41:55;13.40;50.40
29031;DHT22;16122;50.236;11.734;2022-12-18T06:44:21;13.40;50.40
29031;DHT22;16122;50.236;11.734;2022-12-18T06:46:47;13.40;50.50
29031;DHT22;16122;50.236;11.734;2022-12-18T06:49:13;13.40;50.50
29031;DHT22;16122;50.236;11.734;2022-12-18T06:51:39;13.40;50.40
29031;DHT22;16122;50.236;11.734;2022-12-18T06:54:05;13.40;50.50
29031;DHT22;16122;50.236;11.734;2022-12-18T06:56:31;13.40;50.40
29031;DHT22;16122;50.236;11.734;2022-12-18T06:58:57;13.40;50.40
29031;DHT22;16122;50.236;11.734;2022-12-18T07:01:22;13.40;50.30
29031;DHT22;16122;50.236;11.734;2022-12-18T07:03:55;13.40;50.40
29031;DHT22;16122;50.236;11.734;2022-12-18T07:06:23;13.30;50.40
29031;DHT22;16122;50.236;11.734;2022-12-18T07:08:50;13.70;50.60
29031;DHT22;16122;50.236;11.734;2022-12-18T07:11:17;13.30;50.30
29031;DHT22;16122;50.236;11.734;2022-12-18T07:13:44;13.40;50.60
29031;DHT22;16122;50.236;11.734;2022-12-18T07:16:20;13.40;50.60
29031;DHT22;16122;50.236;11.734;2022-12-18T07:18:46;13.10;50.40
29031;DHT22;16122;50.236;11.734;2022-12-18T07:21:14;13.40;50.60
29031;DHT22;16122;50.236;11.734;2022-12-18T07:23:41;13.40;50.70
29031;DHT22;16122;50.236;11.734;2022-12-18T07:26:09;13.40;50.80
29031;DHT22;16122;50.236;11.734;2022-12-18T07:28:36;13.40;50.80
29031;DHT22;16122;50.236;11.734;2022-12-18T07:31:07;13.40;50.90
29031;DHT22;16122;50.236;11.734;2022-12-18T07:33:34;13.40;50.90
29031;DHT22;16122;50.236;11.734;2022-12-18T07:36:01;13.40;51.00
29031;DHT22;16122;50.236;11.734;2022-12-18T07:38:27;13.40;51.00
29031;DHT22;16122;50.236;11.734;2022-12-18T07:40:53;13.40;51.10
29031;DHT22;16122;50.236;11.734;2022-12-18T07:43:18;13.40;51.20
29031;DHT22;16122;50.236;11.734;2022-12-18T07:45:44;13.60;51.40
29031;DHT22;16122;50.236;11.734;2022-12-18T07:48:10;13.40;51.00
29031;DHT22;16122;50.236;11.734;2022-12-18T07:50:37;13.40;51.10
29031;DHT22;16122;50.236;11.734;2022-12-18T07:53:03;13.70;51.40
29031;DHT22;16122;50.236;11.734;2022-12-18T07:55:30;13.40;51.10
29031;DHT22;16122;50.236;11.734;2022-12-18T07:57:56;13.40;51.10
29031;DHT22;16122;50.236;11.734;2022-12-18T08:00:22;13.40;51.10
29031;DHT22;16122;50.236;11.734;2022-12-18T08:02:47;13.50;51.20
29031;DHT22;16122;50.236;11.734;2022-12-18T08:05:14;13.40;51.10
29031;DHT22;16122;50.236;11.734;2022-12-18T08:07:39;13.40;51.10
29031;DHT22;16122;50.236;11.734;2022-12-18T08:10:06;13.40;51.20
29031;DHT22;16122;50.236;11.734;2022-12-18T08:12:32;13.50;51.20
29031;DHT22;16122;50.236;11.734;2022-12-18T08:14:58;13.50;51.30
29031;DHT22;16122;50.236;11.734;2022-12-18T08:17:24;13.50;51.30
29031;DHT22;16122;50.236;11.734;2022-12-18T08:19:49;13.50;51.40
29031;DHT22;16122;50.236;11.734;2022-12-18T08:22:15;13.50;51.50
29031;DHT22;16122;50.236;11.734;2022-12-18T08:24:41;13.50;51.50
29031;DHT22;16122;50.236;11.734;2022-12-18T08:27:07;13.50;51.50
29031;DHT22;16122;50.236;11.734;2022-12-18T08:29:33;13.50;51.00
29031;DHT22;16122;50.236;11.734;2022-12-18T08:31:59;13.50;51.40
29031;DHT22;16122;50.236;11.734;2022-12-18T08:34:25;13.50;51.60
29031;DHT22;16122;50.236;11.734;2022-12-18T08:36:50;13.50;51.70
29031;DHT22;16122;50.236;11.734;2022-12-18T08:39:16;13.50;51.70
29031;DHT22;16122;50.236;11.734;2022-12-18T08:41:42;13.50;51.80
29031;DHT22;16122;50.236;11.734;2022-12-18T08:44:08;13.50;51.80
29031;DHT22;16122;50.236;11.734;2022-12-18T08:46:52;13.50;51.60
29031;DHT22;16122;50.236;11.734;2022-12-18T08:49:18;13.50;51.70
29031;DHT22;16122;50.236;11.734;2022-12-18T08:51:44;13.60;51.90
29031;DHT22;16122;50.236;11.734;2022-12-18T08:54:13;13.60;52.00
29031;DHT22;16122;50.236;11.734;2022-12-18T08:56:39;13.60;52.10
29031;DHT22;16122;50.236;11.734;2022-12-18T08:59:05;13.60;52.20
29031;DHT22;16122;50.236;11.734;2022-12-18T09:01:31;13.60;52.40
29031;DHT22;16122;50.236;11.734;2022-12-18T09:03:57;13.60;52.30
29031;DHT22;16122;50.236;11.734;2022-12-18T09:06:23;13.60;52.60
29031;DHT22;16122;50.236;11.734;2022-12-18T09:08:49;13.60;53.00
29031;DHT22;16122;50.236;11.734;2022-12-18T09:11:26;13.60;53.20
29031;DHT22;16122;50.236;11.734;2022-12-18T09:13:54;13.60;53.30
29031;DHT22;16122;50.236;11.734;2022-12-18T09:16:20;13.60;53.20
29031;DHT22;16122;50.236;11.734;2022-12-18T09:18:48;13.60;53.40
29031;DHT22;16122;50.236;11.734;2022-12-18T09:21:19;13.70;53.50
29031;DHT22;16122;50.236;11.734;2022-12-18T09:23:55;13.70;53.40
29031;DHT22;16122;50.236;11.734;2022-12-18T09:26:22;13.70;54.00
29031;DHT22;16122;50.236;11.734;2022-12-18T09:28:48;13.70;53.20
29031;DHT22;16122;50.236;11.734;2022-12-18T09:31:15;13.70;53.20
29031;DHT22;16122;50.236;11.734;2022-12-18T09:33:41;13.70;52.80
29031;DHT22;16122;50.236;11.734;2022-12-18T09:36:09;13.70;52.60
29031;DHT22;16122;50.236;11.734;2022-12-18T09:38:35;13.70;52.60
29031;DHT22;16122;50.236;11.734;2022-12-18T09:41:40;13.70;52.80
29031;DHT22;16122;50.236;11.734;2022-12-18T09:49:30;13.70;53.10
29031;DHT22;16122;50.236;11.734;2022-12-18T09:52:09;13.80;53.20
29031;DHT22;16122;50.236;11.734;2022-12-18T09:54:46;13.80;53.20
29031;DHT22;16122;50.236;11.734;2022-12-18T09:57:17;13.80;53.10
29031;DHT22;16122;50.236;11.734;2022-12-18T09:59:48;13.80;53.10
29031;DHT22;16122;50.236;11.734;2022-12-18T10:02:19;13.80;53.20
29031;DHT22;16122;50.236;11.734;2022-12-18T10:05:00;13.80;53.10
29031;DHT22;16122;50.236;11.734;2022-12-18T10:07:43;13.80;53.20
29031;DHT22;16122;50.236;11.734;2022-12-18T10:10:53;13.80;53.30
29031;DHT22;16122;50.236;11.734;2022-12-18T10:16:17;13.80;53.40
29031;DHT22;16122;50.236;11.734;2022-12-18T10:21:56;13.80;53.30
29031;DHT22;16122;50.236;11.734;2022-12-18T10:24:26;13.80;53.60
29031;DHT22;16122;50.236;11.734;2022-12-18T10:27:06;13.80;53.60
29031;DHT22;16122;50.236;11.734;2022-12-18T10:29:34;13.80;53.30
29031;DHT22;16122;50.236;11.734;2022-12-18T10:32:00;13.90;53.70
29031;DHT22;16122;50.236;11.734;2022-12-18T10:34:25;13.90;53.70
29031;DHT22;16122;50.236;11.734;2022-12-18T10:36:51;13.90;53.80
29031;DHT22;16122;50.236;11.734;2022-12-18T10:39:22;13.90;54.00
29031;DHT22;16122;50.236;11.734;2022-12-18T10:41:49;13.90;54.00
29031;DHT22;16122;50.236;11.734;2022-12-18T10:44:21;13.90;54.20
29031;DHT22;16122;50.236;11.734;2022-12-18T10:46:54;13.90;54.20
29031;DHT22;16122;50.236;11.734;2022-12-18T10:49:26;13.90;54.30
29031;DHT22;16122;50.236;11.734;2022-12-18T10:52:22;13.90;54.30
29031;DHT22;16122;50.236;11.734;2022-12-18T10:54:53;13.90;54.40
29031;DHT22;16122;50.236;11.734;2022-12-18T10:59:54;13.90;54.50
29031;DHT22;16122;50.236;11.734;2022-12-18T11:02:47;14.00;54.70
29031;DHT22;16122;50.236;11.734;2022-12-18T11:05:31;14.00;54.70
29031;DHT22;16122;50.236;11.734;2022-12-18T11:07:58;13.90;54.60
29031;DHT22;16122;50.236;11.734;2022-12-18T11:10:32;14.00;54.60
29031;DHT22;16122;50.236;11.734;2022-12-18T11:13:30;14.00;54.50
29031;DHT22;16122;50.236;11.734;2022-12-18T11:15:58;14.00;54.30
29031;DHT22;16122;50.236;11.734;2022-12-18T11:18:33;14.00;54.40
29031;DHT22;16122;50.236;11.734;2022-12-18T11:21:09;14.00;54.40
29031;DHT22;16122;50.236;11.734;2022-12-18T11:23:36;14.00;54.40
29031;DHT22;16122;50.236;11.734;2022-12-18T11:26:04;14.00;54.60
29031;DHT22;16122;50.236;11.734;2022-12-18T11:28:37;14.00;54.70
29031;DHT22;16122;50.236;11.734;2022-12-18T11:31:23;14.00;54.70
29031;DHT22;16122;50.236;11.734;2022-12-18T11:36:22;14.00;54.90
29031;DHT22;16122;50.236;11.734;2022-12-18T11:38:49;14.10;55.00
29031;DHT22;16122;50.236;11.734;2022-12-18T11:47:47;14.10;55.70
29031;DHT22;16122;50.236;11.734;2022-12-18T11:50:21;14.10;55.70
29031;DHT22;16122;50.236;11.734;2022-12-18T11:52:49;14.10;55.90
29031;DHT22;16122;50.236;11.734;2022-12-18T11:55:30;14.10;56.00
29031;DHT22;16122;50.236;11.734;2022-12-18T12:00:53;14.10;55.80
29031;DHT22;16122;50.236;11.734;2022-12-18T12:06:15;14.10;56.00
29031;DHT22;16122;50.236;11.734;2022-12-18T12:15:00;14.10;56.00
29031;DHT22;16122;50.236;11.734;2022-12-18T12:18:22;14.10;55.90
29031;DHT22;16122;50.236;11.734;2022-12-18T12:20:44;14.10;56.10
29031;DHT22;16122;50.236;11.734;2022-12-18T12:23:50;14.10;56.10
29031;DHT22;16122;50.236;11.734;2022-12-18T12:34:26;14.10;56.20
29031;DHT22;16122;50.236;11.734;2022-12-18T12:37:14;14.10;56.20
29031;DHT22;16122;50.236;11.734;2022-12-18T12:39:44;14.20;56.30
29031;DHT22;16122;50.236;11.734;2022-12-18T12:42:32;14.10;56.30
29031;DHT22;16122;50.236;11.734;2022-12-18T12:45:25;14.10;56.50
29031;DHT22;16122;50.236;11.734;2022-12-18T12:47:54;14.10;56.70
29031;DHT22;16122;50.236;11.734;2022-12-18T12:50:22;14.20;56.80
29031;DHT22;16122;50.236;11.734;2022-12-18T12:52:54;14.20;56.70
29031;DHT22;16122;50.236;11.734;2022-12-18T12:55:23;14.10;57.60
29031;DHT22;16122;50.236;11.734;2022-12-18T13:00:22;14.20;57.10
29031;DHT22;16122;50.236;11.734;2022-12-18T13:02:56;14.10;57.90
29031;DHT22;16122;50.236;11.734;2022-12-18T13:05:48;14.20;57.30
29031;DHT22;16122;50.236;11.734;2022-12-18T13:10:54;14.20;57.40
29031;DHT22;16122;50.236;11.734;2022-12-18T13:13:54;14.20;57.40
29031;DHT22;16122;50.236;11.734;2022-12-18T13:16:22;14.20;57.20
29031;DHT22;16122;50.236;11.734;2022-12-18T13:18:54;14.20;57.20
29031;DHT22;16122;50.236;11.734;2022-12-18T13:21:30;14.20;57.10
29031;DHT22;16122;50.236;11.734;2022-12-18T13:23:57;14.20;57.00
29031;DHT22;16122;50.236;11.734;2022-12-18T13:26:39;14.20;57.00
29031;DHT22;16122;50.236;11.734;2022-12-18T13:29:05;14.20;56.90
29031;DHT22;16122;50.236;11.734;2022-12-18T13:34:26;14.20;56.80
29031;DHT22;16122;50.236;11.734;2022-12-18T13:36:53;14.20;56.70
29031;DHT22;16122;50.236;11.734;2022-12-18T13:44:55;14.20;56.60
29031;DHT22;16122;50.236;11.734;2022-12-18T13:47:27;14.20;56.50
29031;DHT22;16122;50.236;11.734;2022-12-18T13:49:57;14.10;56.40
29031;DHT22;16122;50.236;11.734;2022-12-18T13:52:26;14.20;56.10
29031;DHT22;16122;50.236;11.734;2022-12-18T13:54:55;14.20;56.10
29031;DHT22;16122;50.236;11.734;2022-12-18T13:57:37;14.20;56.40
29031;DHT22;16122;50.236;11.734;2022-12-18T14:00:28;14.20;56.50
29031;DHT22;16122;50.236;11.734;2022-12-18T14:02:56;14.10;56.40
29031;DHT22;16122;50.236;11.734;2022-12-18T14:05:30;14.10;56.40
29031;DHT22;16122;50.236;11.734;2022-12-18T14:08:11;14.10;56.50
29031;DHT22;16122;50.236;11.734;2022-12-18T14:10:43;14.10;56.40
29031;DHT22;16122;50.236;11.734;2022-12-18T14:13:13;14.10;56.30
29031;DHT22;16122;50.236;11.734;2022-12-18T14:15:42;14.20;56.40
29031;DHT22;16122;50.236;11.734;2022-12-18T14:18:38;14.10;56.50
29031;DHT22;16122;50.236;11.734;2022-12-18T14:21:14;14.10;55.80
29031;DHT22;16122;50.236;11.734;2022-12-18T14:23:41;14.10;55.90
29031;DHT22;16122;50.236;11.734;2022-12-18T14:28:48;14.20;59.30
29031;DHT22;16122;50.236;11.734;2022-12-18T14:31:32;14.20;59.70
29031;DHT22;16122;50.236;11.734;2022-12-18T14:33:58;14.20;59.80
29031;DHT22;16122;50.236;11.734;2022-12-18T14:36:28;14.30;59.70
29031;DHT22;16122;50.236;11.734;2022-12-18T14:38:56;14.20;59.50
29031;DHT22;16122;50.236;11.734;2022-12-18T14:41:23;14.20;59.20
29031;DHT22;16122;50.236;11.734;2022-12-18T14:43:50;14.20;59.10
29031;DHT22;16122;50.236;11.734;2022-12-18T14:46:34;14.20;59.10
29031;DHT22;16122;50.236;11.734;2022-12-18T14:49:21;14.20;59.00
29031;DHT22;16122;50.236;11.734;2022-12-18T14:51:59;14.20;58.60
29031;DHT22;16122;50.236;11.734;2022-12-18T14:54:26;14.20;58.50
29031;DHT22;16122;50.236;11.734;2022-12-18T14:57:18;14.20;58.30
29031;DHT22;16122;50.236;11.734;2022-12-18T14:59:46;14.10;58.20
29031;DHT22;16122;50.236;11.734;2022-12-18T15:02:27;14.10;58.30
29031;DHT22;16122;50.236;11.734;2022-12-18T15:05:28;14.00;58.00
29031;DHT22;16122;50.236;11.734;2022-12-18T15:07:55;14.00;58.10
29031;DHT22;16122;50.236;11.734;2022-12-18T15:10:26;14.00;58.40
29031;DHT22;16122;50.236;11.734;2022-12-18T15:18:04;14.00;58.20
29031;DHT22;16122;50.236;11.734;2022-12-18T15:23:32;14.00;58.60
29031;DHT22;16122;50.236;11.734;2022-12-18T15:26:08;14.00;58.40
29031;DHT22;16122;50.236;11.734;2022-12-18T15:28:44;14.00;58.50
29031;DHT22;16122;50.236;11.734;2022-12-18T15:33:44;14.00;58.70
29031;DHT22;16122;50.236;11.734;2022-12-18T15:36:13;13.90;58.30
29031;DHT22;16122;50.236;11.734;2022-12-18T15:38:39;13.90;58.50
29031;DHT22;16122;50.236;11.734;2022-12-18T15:41:05;13.90;58.50
29031;DHT22;16122;50.236;11.734;2022-12-18T15:43:31;13.90;58.40
29031;DHT22;16122;50.236;11.734;2022-12-18T15:46:12;13.90;58.10
29031;DHT22;16122;50.236;11.734;2022-12-18T15:48:41;13.90;58.20
29031;DHT22;16122;50.236;11.734;2022-12-18T15:51:34;13.90;58.20
29031;DHT22;16122;50.236;11.734;2022-12-18T15:54:02;13.90;58.20
29031;DHT22;16122;50.236;11.734;2022-12-18T15:56:32;13.90;58.20
29031;DHT22;16122;50.236;11.734;2022-12-18T15:59:18;13.90;58.10
29031;DHT22;16122;50.236;11.734;2022-12-18T16:01:49;13.90;58.00
29031;DHT22;16122;50.236;11.734;2022-12-18T16:04:17;14.20;58.40
29031;DHT22;16122;50.236;11.734;2022-12-18T16:06:45;13.80;57.80
29031;DHT22;16122;50.236;11.734;2022-12-18T16:09:11;13.90;57.70
29031;DHT22;16122;50.236;11.734;2022-12-18T16:11:39;13.90;57.60
29031;DHT22;16122;50.236;11.734;2022-12-18T16:14:18;13.90;57.60
29031;DHT22;16122;50.236;11.734;2022-12-18T16:16:49;13.90;57.70
29031;DHT22;16122;50.236;11.734;2022-12-18T16:19:16;13.80;57.90
29031;DHT22;16122;50.236;11.734;2022-12-18T16:21:43;13.80;58.00
29031;DHT22;16122;50.236;11.734;2022-12-18T16:24:15;13.80;57.60
29031;DHT22;16122;50.236;11.734;2022-12-18T16:26:41;13.80;57.60
29031;DHT22;16122;50.236;11.734;2022-12-18T16:29:08;13.80;57.70
29031;DHT22;16122;50.236;11.734;2022-12-18T16:31:34;13.80;57.60
29031;DHT22;16122;50.236;11.734;2022-12-18T16:34:20;13.80;57.80
29031;DHT22;16122;50.236;11.734;2022-12-18T16:36:50;13.80;57.70
29031;DHT22;16122;50.236;11.734;2022-12-18T16:39:16;13.80;57.70
29031;DHT22;16122;50.236;11.734;2022-12-18T16:41:42;13.80;57.60
29031;DHT22;16122;50.236;11.734;2022-12-18T16:44:08;13.80;57.60
29031;DHT22;16122;50.236;11.734;2022-12-18T16:46:36;13.80;57.80
29031;DHT22;16122;50.236;11.734;2022-12-18T16:49:02;13.70;57.80
29031;DHT22;16122;50.236;11.734;2022-12-18T16:51:29;13.70;57.70
29031;DHT22;16122;50.236;11.734;2022-12-18T16:53:56;13.60;57.50
29031;DHT22;16122;50.236;11.734;2022-12-18T16:56:22;13.70;57.80
29031;DHT22;16122;50.236;11.734;2022-12-18T16:58:56;13.60;57.70
29031;DHT22;16122;50.236;11.734;2022-12-18T17:01:23;13.60;57.70
29031;DHT22;16122;50.236;11.734;2022-12-18T17:03:56;13.60;57.60
29031;DHT22;16122;50.236;11.734;2022-12-18T17:06:24;13.60;57.70
29031;DHT22;16122;50.236;11.734;2022-12-18T17:08:57;13.60;57.70
29031;DHT22;16122;50.236;11.734;2022-12-18T17:11:26;13.60;57.80
29031;DHT22;16122;50.236;11.734;2022-12-18T17:13:52;13.70;57.70